Aviation Digital Data Service (ADDS)

Output produced by METARs form (0627 UTC 21 August 2017)
found at http://aviationweather.gov/adds/metars/
 
KERI 210540Z 2106/2206 18009KT P6SM VCTS SCT150CB 
     FM210800 19009KT P6SM BKN090 
     FM211200 19009KT P6SM SCT200 
     FM211400 23007KT P6SM SCT150 
     FM212200 00000KT P6SM FEW250 
     FM220500 19009KT P6SM BKN150